Latest Coastal Weather Observations for Hillarys Point Boat Harbour

IDW60701

Issued at 7:33 am WST Tuesday 30 August 2016 (issued every 10 minutes, with the page automatically refreshed every 10 minutes)

About coastal observations | Map of coastal stations | Coastal observations for WA | Marine services | Other Formats
Station Details ID: 009265 Name: HILLARYS BOAT HARBOUR NTC AWS Lat: -31.83 Lon: 115.74 Height: 0.0 m
Data from the previous 72 hours. | See also: Recent months for locations in Western Australia
Date/Time
WST
Temp
°C
Wind Pressure Rain since
9am
mm
Weather Cloud Vis
km
Sea
Height
m
Swell
Dir  Spd
kts
Gust
kts
hPa Trend Height
m
Period
s
Dir
30/07:30am 9.0 NNE 5 8 1017.4 - - - - - - - - -
30/07:00am 8.3 ENE 7 9 1017.1 - - - - - - - - -
30/06:30am 8.4 ENE 6 9 1016.9 - - - - - - - - -
30/06:00am 8.5 ENE 7 9 1016.6 - - - - - - - - -
30/05:30am 8.7 ENE 6 9 1016.6 - - - - - - - - -
30/05:00am 8.8 ENE 6 9 1016.4 - - - - - - - - -
30/04:30am 9.0 ENE 6 8 1016.0 - - - - - - - - -
30/04:00am 8.9 ENE 6 8 1015.9 - - - - - - - - -
30/03:30am 8.9 ENE 6 9 1016.1 - - - - - - - - -
30/03:00am 9.9 ENE 5 6 1016.1 - - - - - - - - -
30/02:30am 9.8 ENE 4 7 1016.3 - - - - - - - - -
30/02:00am 9.9 ENE 4 6 1016.7 - - - - - - - - -
30/01:30am 10.2 ENE 4 6 1016.8 - - - - - - - - -
30/01:00am 10.5 ENE 4 5 1017.0 - - - - - - - - -
30/12:30am 10.9 ENE 3 5 1017.1 - - - - - - - - -
30/12:00am 11.6 ENE 2 4 1017.1 - - - - - - - - -
 
Date/Time
WST
Temp
°C
Wind Pressure Rain since
9am
mm
Weather Cloud Vis
km
Sea
Height
m
Swell
Dir  Spd
kts
Gust
kts
hPa Trend Height
m
Period
s
Dir
29/11:30pm 12.1 NE 2 5 1017.2 - - - - - - - - -
29/11:00pm 13.0 ESE 1 3 1017.2 - - - - - - - - -
29/10:30pm 13.3 SSE 1 4 1017.4 - - - - - - - - -
29/10:00pm 13.6 SSE 3 6 1017.4 - - - - - - - - -
29/09:30pm 13.8 SSE 4 7 1017.2 - - - - - - - - -
29/09:00pm 14.1 S 3 7 1017.4 - - - - - - - - -
29/08:30pm 14.3 SW 7 13 1017.1 - - - - - - - - -
29/08:00pm 14.2 SSW 5 11 1017.0 - - - - - - - - -
29/07:30pm 14.1 SW 7 13 1016.8 - - - - - - - - -
29/07:00pm 14.1 SSW 5 9 1016.5 - - - - - - - - -
29/06:30pm 14.1 SSW 6 10 1016.4 - - - - - - - - -
29/06:00pm 14.2 SSW 5 10 1016.1 - - - - - - - - -
29/05:30pm 14.4 SSW 3 8 1015.9 - - - - - - - - -
29/05:00pm 14.7 SSW 6 11 1015.6 - - - - - - - - -
29/04:30pm 14.8 SSW 6 10 1015.5 - - - - - - - - -
29/04:00pm 14.9 SSW 6 11 1015.4 - - - - - - - - -
29/03:30pm 15.0 SSW 7 13 1015.3 - - - - - - - - -
29/03:00pm 15.2 SSW 5 9 1015.4 - - - - - - - - -
29/02:30pm 15.1 SSW 6 12 1015.3 - - - - - - - - -
29/02:00pm 15.1 SSW 6 11 1015.1 - - - - - - - - -
29/01:30pm 14.9 SSW 6 10 1015.3 - - - - - - - - -
29/01:00pm 14.7 SSW 3 8 1015.4 - - - - - - - - -
29/12:30pm 14.3 SSW 5 9 1015.8 - - - - - - - - -
29/12:00pm 14.5 SSW 3 6 1016.1 - - - - - - - - -
29/11:30am 14.3 SSW 3 7 1016.5 - - - - - - - - -
29/11:00am 14.5 SSW 3 7 1016.8 - - - - - - - - -
29/10:30am 13.7 SSW 4 8 1016.8 - - - - - - - - -
29/10:00am 13.4 SSW 4 9 1016.7 - - - - - - - - -
29/09:30am 13.6 S 2 7 1016.6 - - - - - - - - -
29/09:00am 13.2 SSE 4 10 1016.4 - - - - - - - - -
29/08:30am 12.8 SSE 4 8 1016.2 - - - - - - - - -
29/08:00am 12.5 SSE 3 6 1016.1 - - - - - - - - -
29/07:30am 12.5 SSE 3 5 1015.7 - - - - - - - - -
29/07:00am 12.3 SE 3 6 1015.4 - - - - - - - - -
29/06:30am 12.5 SE 3 6 1015.1 - - - - - - - - -
29/06:00am 12.8 SSE 5 9 1015.0 - - - - - - - - -
29/05:30am 12.9 SSE 6 11 1014.7 - - - - - - - - -
29/05:00am 12.9 SSE 5 9 1014.4 - - - - - - - - -
29/04:30am 13.0 SSE 5 11 1014.2 - - - - - - - - -
29/04:00am 13.2 S 5 11 1013.9 - - - - - - - - -
29/03:30am 13.3 S 4 11 1013.7 - - - - - - - - -
29/03:00am 13.4 S 4 12 1013.6 - - - - - - - - -
29/02:30am 13.4 SSW 4 9 1013.7 - - - - - - - - -
29/02:00am 13.3 S 4 9 1013.9 - - - - - - - - -
29/01:30am 13.5 SSW 4 11 1014.0 - - - - - - - - -
29/01:00am 13.5 SSW 5 13 1014.0 - - - - - - - - -
29/12:30am 13.1 S 4 10 1013.8 - - - - - - - - -
29/12:00am 13.2 S 4 10 1013.7 - - - - - - - - -
 
Date/Time
WST
Temp
°C
Wind Pressure Rain since
9am
mm
Weather Cloud Vis
km
Sea
Height
m
Swell
Dir  Spd
kts
Gust
kts
hPa Trend Height
m
Period
s
Dir
28/11:30pm 13.2 SSE 5 11 1013.8 - - - - - - - - -
28/11:00pm 13.1 SSE 5 9 1013.9 - - - - - - - - -
28/10:30pm 13.3 SSE 5 11 1013.8 - - - - - - - - -
28/10:00pm 13.9 S 4 14 1013.8 - - - - - - - - -
28/09:30pm 14.0 S 4 12 1013.7 - - - - - - - - -
28/09:00pm 14.0 SSW 5 11 1013.6 - - - - - - - - -
28/08:30pm 14.4 SSW 6 13 1013.3 - - - - - - - - -
28/08:00pm 14.6 SSW 7 15 1012.9 - - - - - - - - -
28/07:30pm 14.6 SSW 8 16 1012.5 - - - - - - - - -
28/07:00pm 14.7 SSW 8 15 1012.2 - - - - - - - - -
28/06:30pm 14.8 SSW 9 15 1012.0 - - - - - - - - -
28/06:00pm 14.6 SSW 11 17 1011.8 - - - - - - - - -
28/05:30pm 14.5 SSW 11 19 1011.6 - - - - - - - - -
28/05:00pm 14.8 SSW 9 18 1011.5 - - - - - - - - -
28/04:30pm 14.7 SSW 11 19 1011.3 - - - - - - - - -
28/04:00pm 14.1 SSW 8 22 1010.9 - - - - - - - - -
28/03:30pm 14.7 SSW 10 19 1010.8 - - - - - - - - -
28/03:00pm 14.6 SSW 10 20 1010.7 - - - - - - - - -
28/02:30pm 14.1 SSW 9 17 1010.7 - - - - - - - - -
28/02:00pm 13.8 SSW 7 17 1010.7 - - - - - - - - -
28/01:30pm 14.4 SSW 10 20 1010.7 - - - - - - - - -
28/01:00pm 14.7 SSW 8 17 1010.8 - - - - - - - - -
28/12:30pm 14.7 SSW 8 16 1010.9 - - - - - - - - -
28/12:00pm 14.5 SSW 8 17 1011.0 - - - - - - - - -
28/11:30am 14.3 SSW 7 17 1011.3 - - - - - - - - -
28/11:00am 14.5 SSW 8 18 1011.3 - - - - - - - - -
28/10:30am 14.1 SSW 8 14 1011.2 - - - - - - - - -
28/10:00am 14.1 SSW 6 13 1011.2 - - - - - - - - -
28/09:30am 13.7 SSW 7 15 1011.1 - - - - - - - - -
28/09:00am 13.9 SSW 9 17 1011.0 - - - - - - - - -
28/08:30am 13.9 SSW 8 16 1010.6 - - - - - - - - -
28/08:00am 13.4 SSW 9 19 1010.3 - - - - - - - - -
28/07:30am 13.6 SSW 8 16 1009.8 - - - - - - - - -
28/07:00am 12.9 SSW 10 20 1009.2 - - - - - - - - -
28/06:30am 13.8 SSW 11 22 1008.8 - - - - - - - - -
28/06:00am 13.2 SSW 14 24 1008.6 - - - - - - - - -
28/05:49am 13.3 SSW 15 29 1008.4 - - - - - - - - -
28/05:30am 13.4 SSW 12 23 1008.4 - - - - - - - - -
28/05:00am 13.3 SSW 13 23 1007.9 - - - - - - - - -
28/04:30am 13.9 SSW 11 20 1007.6 - - - - - - - - -
28/04:00am 12.9 SSW 12 24 1007.6 - - - - - - - - -
28/03:30am 12.8 SSW 10 20 1007.5 - - - - - - - - -
28/03:00am 13.3 SSW 12 24 1007.3 - - - - - - - - -
28/02:30am 13.6 SSW 13 22 1007.1 - - - - - - - - -
28/02:05am 11.8 SW 15 27 1007.1 - - - - - - - - -
28/02:00am 14.0 SSW 14 24 1006.8 - - - - - - - - -
28/01:47am 13.4 SW 15 26 1006.8 - - - - - - - - -
28/01:30am 12.4 SSW 12 21 1007.1 - - - - - - - - -
28/01:00am 12.2 SW 13 20 1007.0 - - - - - - - - -
28/12:32am 11.9 SW 18 29 1007.1 - - - - - - - - -
28/12:30am 11.8 SW 19 29 1007.1 - - - - - - - - -
28/12:03am 13.8 SW 15 29 1006.8 - - - - - - - - -
28/12:00am 13.6 SSW 13 23 1006.8 - - - - - - - - -
 
Date/Time
WST
Temp
°C
Wind Pressure Rain since
9am
mm
Weather Cloud Vis
km
Sea
Height
m
Swell
Dir  Spd
kts
Gust
kts
hPa Trend Height
m
Period
s
Dir
27/11:30pm 13.2 SW 13 23 1006.7 - - - - - - - - -
27/11:00pm 14.2 SW 15 29 1006.6 - - - - - - - - -
27/10:37pm 13.4 SW 15 26 1006.7 - - - - - - - - -
27/10:30pm 13.7 SW 17 24 1006.5 - - - - - - - - -
27/10:16pm 14.2 SW 16 26 1006.5 - - - - - - - - -
27/10:00pm 13.7 SW 17 24 1006.6 - - - - - - - - -
27/09:30pm 12.3 SW 15 27 1006.7 - - - - - - - - -
27/09:06pm 14.2 SW 16 27 1006.3 - - - - - - - - -
27/09:00pm 14.7 SW 17 27 1006.2 - - - - - - - - -
27/08:30pm 14.5 SW 19 29 1005.9 - - - - - - - - -
27/08:00pm 14.9 SW 19 31 1005.6 - - - - - - - - -
27/07:35pm 14.0 WSW 21 34 1005.5 - - - - - - - - -
27/07:30pm 14.0 WSW 22 30 1005.4 - - - - - - - - -
27/07:08pm 14.2 WSW 19 30 1005.0 - - - - - - - - -
27/07:00pm 14.3 SW 20 28 1004.9 - - - - - - - - -
27/06:30pm 14.6 SW 17 27 1004.6 - - - - - - - - -
27/06:01pm 14.7 WSW 20 31 1004.4 - - - - - - - - -
27/06:00pm 14.9 WSW 20 27 1004.4 - - - - - - - - -
27/05:40pm 14.5 WSW 17 29 1004.2 - - - - - - - - -
27/05:30pm 13.6 WSW 17 23 1004.3 - - - - - - - - -
27/05:01pm 14.8 WSW 16 27 1004.0 - - - - - - - - -
27/05:00pm 14.7 WSW 16 24 1004.0 - - - - - - - - -
27/04:40pm 14.7 WSW 16 28 1003.8 - - - - - - - - -
27/04:30pm 14.6 WSW 19 27 1003.9 - - - - - - - - -
27/04:00pm 13.7 WSW 21 28 1003.8 - - - - - - - - -
27/03:30pm 12.7 WSW 20 32 1003.8 - - - - - - - - -
27/03:00pm 15.0 WSW 17 27 1003.5 - - - - - - - - -
27/02:30pm 14.7 WSW 17 25 1003.3 - - - - - - - - -
27/02:00pm 14.5 SW 17 23 1003.3 - - - - - - - - -
27/01:30pm 14.8 WSW 15 21 1003.4 - - - - - - - - -
27/01:01pm 14.8 WSW 17 27 1003.4 - - - - - - - - -
27/01:00pm 14.7 WSW 18 27 1003.4 - - - - - - - - -
27/12:30pm 15.1 WSW 17 22 1003.3 - - - - - - - - -
27/12:00pm 15.2 WSW 17 23 1003.0 - - - - - - - - -
27/11:30am 15.3 SW 17 23 1002.7 - - - - - - - - -
27/11:00am 15.7 W 14 24 1002.6 - - - - - - - - -
27/10:30am 15.4 WNW 14 22 1002.7 - - - - - - - - -
27/10:00am 15.1 NW 11 21 1002.8 - - - - - - - - -
27/09:30am 15.0 W 14 23 1002.8 - - - - - - - - -
27/09:00am 15.6 WNW 13 21 1003.0 - - - - - - - - -
27/08:39am 15.0 WNW 15 27 1002.9 - - - - - - - - -
27/08:30am 15.7 WNW 13 21 1002.8 - - - - - - - - -
27/08:00am 15.9 WNW 13 20 1002.8 - - - - - - - - -

Other Formats:

Comma delimited format used in spreadsheet applications
http://www.bom.gov.au/fwo/IDW60701/IDW60701.95605.axf

JavaScript Object Notation format (JSON) in row-major order
http://www.bom.gov.au/fwo/IDW60701/IDW60701.95605.json